createdAt,value
2022-11-20T00:00:09.583Z,101641.27
2022-11-20T00:01:11.409Z,101651.63
2022-11-20T00:02:13.261Z,101652.50
2022-11-20T00:03:15.123Z,101656.80
2022-11-20T00:04:16.907Z,101668.94
2022-11-20T00:05:18.768Z,101675.89
2022-11-20T00:06:20.597Z,101678.48
2022-11-20T00:07:22.442Z,101676.80
2022-11-20T00:08:24.297Z,101674.20
2022-11-20T00:09:26.107Z,101674.20
2022-11-20T00:10:27.972Z,101670.71
2022-11-20T00:11:29.795Z,101667.31
2022-11-20T00:12:31.595Z,101666.50
2022-11-20T00:13:33.403Z,101667.37
2022-11-20T00:14:35.220Z,101660.48
2022-11-20T00:15:37.057Z,101664.03
2022-11-20T00:16:38.866Z,101660.59
2022-11-20T00:17:40.655Z,101657.13
2022-11-20T00:18:42.444Z,101666.67
2022-11-20T00:19:44.290Z,101667.55
2022-11-20T00:20:46.172Z,101666.67
2022-11-20T00:21:47.983Z,101655.42
2022-11-20T00:22:49.789Z,101653.73
2022-11-20T00:23:51.579Z,101641.66
2022-11-20T00:24:53.425Z,101637.29
2022-11-20T00:25:55.260Z,101633.83
2022-11-20T00:26:57.047Z,101630.37
2022-11-20T00:27:58.866Z,101635.55
2022-11-20T00:29:00.711Z,101638.95
2022-11-20T00:30:02.505Z,101626.01
2022-11-20T00:31:04.351Z,101632.00
2022-11-20T00:32:06.164Z,101636.30
2022-11-20T00:33:07.982Z,101631.19
2022-11-20T00:34:09.802Z,101631.19
2022-11-20T00:35:11.617Z,101633.72
2022-11-20T00:36:13.469Z,101625.95
2022-11-20T00:37:15.277Z,101633.72
2022-11-20T00:38:17.086Z,101627.66
2022-11-20T00:39:19.248Z,101633.72
2022-11-20T00:40:21.321Z,101625.83
2022-11-20T00:41:23.196Z,101631.79
2022-11-20T00:42:25.019Z,101629.14
2022-11-20T00:43:26.873Z,101632.63
2022-11-20T00:44:28.680Z,101634.32
2022-11-20T00:45:30.492Z,101634.32
2022-11-20T00:46:32.372Z,101643.05
2022-11-20T00:47:34.195Z,101653.34
2022-11-20T00:48:35.992Z,101647.27
2022-11-20T00:49:37.787Z,101651.63
2022-11-20T00:50:39.582Z,101655.03
2022-11-20T00:51:41.551Z,101650.76
2022-11-20T00:52:43.323Z,101643.95
2022-11-20T00:53:45.115Z,101646.55
2022-11-20T00:54:46.812Z,101647.41
2022-11-20T00:55:48.499Z,101636.09
2022-11-20T00:56:50.341Z,101633.39
2022-11-20T00:57:52.136Z,101628.91
2022-11-20T00:58:53.932Z,101628.91
2022-11-20T00:59:55.721Z,101628.16
2022-11-20T01:00:57.570Z,101627.97
2022-11-20T01:01:59.364Z,101623.49
2022-11-20T01:03:01.068Z,101628.67
2022-11-20T01:04:02.876Z,101623.43
2022-11-20T01:05:04.652Z,101628.67
2022-11-20T01:06:06.553Z,101629.48
2022-11-20T01:07:08.541Z,101626.02
2022-11-20T01:08:10.369Z,101614.86
2022-11-20T01:09:12.159Z,101617.50
2022-11-20T01:10:14.256Z,101626.14
2022-11-20T01:11:15.940Z,101622.73
2022-11-20T01:12:17.765Z,101621.84
2022-11-20T01:13:25.357Z,101628.84
2022-11-20T01:14:23.148Z,101629.78
2022-11-20T01:15:24.823Z,101632.42
2022-11-20T01:16:26.501Z,101637.60
2022-11-20T01:17:28.234Z,101633.39
2022-11-20T01:18:30.029Z,101629.08
2022-11-20T01:19:31.805Z,101629.02
2022-11-20T01:20:33.587Z,101627.25
2022-11-20T01:21:35.369Z,101635.86
2022-11-20T01:22:37.226Z,101633.21
2022-11-20T01:23:38.930Z,101631.44
2022-11-20T01:24:40.620Z,101621.08
2022-11-20T01:25:42.295Z,101621.89
2022-11-20T01:26:43.978Z,101617.56
2022-11-20T01:27:45.812Z,101609.73
2022-11-20T01:28:47.598Z,101617.45
2022-11-20T01:29:49.405Z,101609.44
2022-11-20T01:30:51.187Z,101610.20
2022-11-20T01:31:52.966Z,101614.34
2022-11-20T01:32:54.787Z,101611.82
2022-11-20T01:33:56.471Z,101612.72
2022-11-20T01:34:58.258Z,101611.91
2022-11-20T01:35:59.948Z,101609.39
2022-11-20T01:37:01.648Z,101601.73
2022-11-20T01:38:03.498Z,101605.31
2022-11-20T01:39:05.182Z,101595.02
2022-11-20T01:40:07.067Z,101590.77
2022-11-20T01:41:08.845Z,101599.50
2022-11-20T01:42:10.757Z,101599.56
2022-11-20T01:43:12.596Z,101592.61
2022-11-20T01:44:14.376Z,101595.20
2022-11-20T01:45:16.170Z,101592.67
2022-11-20T01:46:18.262Z,101590.08
2022-11-20T01:47:20.080Z,101591.85
2022-11-20T01:48:21.909Z,101584.95
2022-11-20T01:49:23.889Z,101572.08
2022-11-20T01:50:25.698Z,101577.25
2022-11-20T01:51:27.384Z,101572.89
2022-11-20T01:52:29.172Z,101572.83
2022-11-20T01:53:31.153Z,101565.80
2022-11-20T01:54:32.849Z,101572.72
2022-11-20T01:55:34.646Z,101573.62
2022-11-20T01:56:36.355Z,101566.67
2022-11-20T01:57:38.147Z,101568.27
2022-11-20T01:58:39.893Z,101557.02
2022-11-20T01:59:41.681Z,101550.84
2022-11-20T02:00:43.479Z,101547.12
2022-11-20T02:01:46.718Z,101539.07
2022-11-20T02:02:48.467Z,101544.07
2022-11-20T02:03:50.298Z,101543.95
2022-11-20T02:04:52.092Z,101545.61
2022-11-20T02:05:53.887Z,101545.61
2022-11-20T02:06:55.658Z,101536.98
2022-11-20T02:07:57.359Z,101534.33
2022-11-20T02:08:59.159Z,101538.66
2022-11-20T02:10:00.857Z,101550.78
2022-11-20T02:11:02.548Z,101560.27
2022-11-20T02:12:04.326Z,101577.59
2022-11-20T02:13:06.100Z,101584.59
2022-11-20T02:14:07.925Z,101577.77
2022-11-20T02:15:09.712Z,101574.42
2022-11-20T02:16:11.915Z,101585.64
2022-11-20T02:17:13.707Z,101589.20
2022-11-20T02:18:15.505Z,101606.41
2022-11-20T02:19:17.340Z,101615.95
2022-11-20T02:20:19.119Z,101619.47
2022-11-20T02:21:20.902Z,101616.94
2022-11-20T02:22:22.690Z,101619.58
2022-11-20T02:23:24.482Z,101615.31
2022-11-20T02:24:26.265Z,101603.25
2022-11-20T02:25:27.953Z,101597.95
2022-11-20T02:26:29.743Z,101599.73
2022-11-20T02:27:31.552Z,101586.78
2022-11-20T02:28:33.331Z,101579.95
2022-11-20T02:29:35.158Z,101573.16
2022-11-20T02:30:36.852Z,101576.55
2022-11-20T02:31:38.551Z,101586.73
2022-11-20T02:32:40.331Z,101579.72
2022-11-20T02:33:42.019Z,101565.91
2022-11-20T02:34:43.847Z,101551.20
2022-11-20T02:35:45.648Z,101550.15
2022-11-20T02:36:47.345Z,101554.18
2022-11-20T02:37:49.040Z,101554.12
2022-11-20T02:38:50.812Z,101547.20
2022-11-20T02:39:52.759Z,101537.67
2022-11-20T02:40:55.880Z,101530.72
2022-11-20T02:41:57.851Z,101530.78
2022-11-20T02:42:59.540Z,101534.18
2022-11-20T02:44:01.319Z,101524.68
2022-11-20T02:45:03.169Z,101525.55
2022-11-20T02:46:04.966Z,101515.27
2022-11-20T02:47:06.652Z,101508.20
2022-11-20T02:48:08.434Z,101505.72
2022-11-20T02:49:10.214Z,101506.62
2022-11-20T02:50:12.289Z,101505.67
2022-11-20T02:51:14.086Z,101507.33
2022-11-20T02:52:15.766Z,101510.61
2022-11-20T02:53:17.466Z,101514.78
2022-11-20T02:54:19.271Z,101522.42
2022-11-20T02:55:21.264Z,101529.95
2022-11-20T02:56:22.956Z,101527.12
2022-11-20T02:57:24.747Z,101538.20
2022-11-20T02:58:26.526Z,101537.28
2022-11-20T02:59:28.207Z,101543.26
2022-11-20T03:00:29.943Z,101541.30
2022-11-20T03:01:31.768Z,101541.17
2022-11-20T03:02:33.523Z,101537.66
2022-11-20T03:03:35.319Z,101526.22
2022-11-20T03:04:37.041Z,101528.56
2022-11-20T03:05:38.887Z,101531.98
2022-11-20T03:06:40.711Z,101532.67
2022-11-20T03:07:42.584Z,101541.30
2022-11-20T03:08:44.408Z,101553.47
2022-11-20T03:09:46.192Z,101556.25
2022-11-20T03:10:48.064Z,101553.66
2022-11-20T03:11:49.880Z,101555.25
2022-11-20T03:12:51.660Z,101566.39
2022-11-20T03:13:53.471Z,101568.85
2022-11-20T03:14:55.287Z,101564.55
2022-11-20T03:15:57.118Z,101565.65
2022-11-20T03:16:58.923Z,101570.10
2022-11-20T03:18:00.728Z,101566.77
2022-11-20T03:19:02.526Z,101558.33
2022-11-20T03:20:04.355Z,101551.58
2022-11-20T03:21:06.212Z,101551.64
2022-11-20T03:22:07.990Z,101545.66
2022-11-20T03:23:09.778Z,101552.66
2022-11-20T03:24:11.591Z,101552.73
2022-11-20T03:25:13.418Z,101559.70
2022-11-20T03:26:15.300Z,101561.60
2022-11-20T03:27:17.125Z,101563.38
2022-11-20T03:28:18.925Z,101563.38
2022-11-20T03:29:21.052Z,101576.49
2022-11-20T03:30:27.697Z,101575.63
2022-11-20T03:31:26.603Z,101595.41
2022-11-20T03:32:28.424Z,101598.95
2022-11-20T03:33:30.206Z,101610.23
2022-11-20T03:34:32.022Z,101619.83
2022-11-20T03:35:33.819Z,101627.72
2022-11-20T03:36:35.655Z,101627.78
2022-11-20T03:37:37.472Z,101624.34
2022-11-20T03:38:39.294Z,101618.37
2022-11-20T03:39:41.122Z,101620.14
2022-11-20T03:40:42.922Z,101620.14
2022-11-20T03:41:44.824Z,101622.73
2022-11-20T03:42:46.654Z,101621.02
2022-11-20T03:43:48.443Z,101627.06
2022-11-20T03:44:50.238Z,101622.79
2022-11-20T03:45:52.046Z,101637.53
2022-11-20T03:46:53.872Z,101641.02
2022-11-20T03:47:55.564Z,101648.78
2022-11-20T03:48:57.384Z,101641.02
2022-11-20T03:49:59.200Z,101635.06
2022-11-20T03:51:01.010Z,101628.15
2022-11-20T03:52:02.859Z,101623.91
2022-11-20T03:53:04.669Z,101617.98
2022-11-20T03:54:06.464Z,101608.33
2022-11-20T03:55:08.279Z,101618.80
2022-11-20T03:56:10.385Z,101614.47
2022-11-20T03:57:12.351Z,101634.25
2022-11-20T03:58:14.175Z,101632.58
2022-11-20T03:59:15.990Z,101649.78
2022-11-20T04:00:17.995Z,101644.55
2022-11-20T04:01:19.850Z,101654.89
2022-11-20T04:02:21.652Z,101661.78
2022-11-20T04:03:23.460Z,101667.89
2022-11-20T04:04:25.424Z,101676.61
2022-11-20T04:05:27.246Z,101682.66
2022-11-20T04:06:29.047Z,101675.83
2022-11-20T04:07:30.942Z,101675.83
2022-11-20T04:08:32.805Z,101669.84
2022-11-20T04:09:34.594Z,101660.31
2022-11-20T04:10:36.400Z,101656.05
2022-11-20T04:11:38.186Z,101649.16
2022-11-20T04:12:40.083Z,101636.16
2022-11-20T04:13:41.887Z,101635.28
2022-11-20T04:14:44.005Z,101631.85
2022-11-20T04:15:45.824Z,101644.79
2022-11-20T04:16:47.621Z,101649.03
2022-11-20T04:17:49.472Z,101644.61
2022-11-20T04:18:51.288Z,101642.77
2022-11-20T04:19:53.097Z,101630.73
2022-11-20T04:20:54.903Z,101628.15
2022-11-20T04:21:56.709Z,101625.50
2022-11-20T04:22:58.566Z,101624.59
2022-11-20T04:24:00.379Z,101626.31
2022-11-20T04:25:02.190Z,101633.20
2022-11-20T04:26:03.976Z,101626.31
2022-11-20T04:27:05.798Z,101617.67
2022-11-20T04:28:07.743Z,101602.16
2022-11-20T04:29:09.552Z,101594.40
2022-11-20T04:30:11.775Z,101590.91
2022-11-20T04:31:13.572Z,101592.56
2022-11-20T04:32:15.363Z,101582.91
2022-11-20T04:33:17.182Z,101576.80
2022-11-20T04:34:18.996Z,101569.85
2022-11-20T04:35:20.788Z,101562.03
2022-11-20T04:36:22.796Z,101557.64
2022-11-20T04:37:24.595Z,101556.61
2022-11-20T04:38:26.443Z,101547.86
2022-11-20T04:39:28.264Z,101545.09
2022-11-20T04:40:30.071Z,101544.12
2022-11-20T04:41:31.874Z,101538.89
2022-11-20T04:42:33.674Z,101537.16
2022-11-20T04:43:35.589Z,101535.44
2022-11-20T04:44:37.400Z,101539.80
2022-11-20T04:45:39.202Z,101531.20
2022-11-20T04:46:40.990Z,101525.97
2022-11-20T04:47:42.820Z,101506.12
2022-11-20T04:48:44.778Z,101494.70
2022-11-20T04:49:46.645Z,101498.94
2022-11-20T04:50:48.477Z,101507.38
2022-11-20T04:51:50.300Z,101517.66
2022-11-20T04:52:52.123Z,101526.29
2022-11-20T04:53:53.974Z,101522.77
2022-11-20T04:54:55.779Z,101532.17
2022-11-20T04:55:57.573Z,101534.63
2022-11-20T04:56:59.366Z,101534.57
2022-11-20T04:58:01.154Z,101530.21
2022-11-20T04:59:03.034Z,101530.15
2022-11-20T05:00:04.922Z,101524.80
2022-11-20T05:01:06.943Z,101532.36
2022-11-20T05:02:08.776Z,101529.70
2022-11-20T05:03:10.579Z,101525.28
2022-11-20T05:04:12.402Z,101519.25
2022-11-20T05:05:14.128Z,101531.33
2022-11-20T05:06:16.254Z,101533.03
2022-11-20T05:07:18.090Z,101539.98
2022-11-20T05:08:19.942Z,101528.80
2022-11-20T05:09:21.970Z,101535.75
2022-11-20T05:10:23.926Z,101538.33
2022-11-20T05:11:25.727Z,101536.72
2022-11-20T05:12:27.537Z,101527.12
2022-11-20T05:13:29.357Z,101530.58
2022-11-20T05:14:31.257Z,101536.78
2022-11-20T05:15:33.162Z,101554.87
2022-11-20T05:16:34.946Z,101565.20
2022-11-20T05:17:36.657Z,101568.66
2022-11-20T05:18:38.451Z,101580.84
2022-11-20T05:19:40.279Z,101584.36
2022-11-20T05:20:42.059Z,101578.44
2022-11-20T05:21:43.755Z,101566.39
2022-11-20T05:22:45.552Z,101557.83
2022-11-20T05:23:47.251Z,101553.66
2022-11-20T05:24:49.091Z,101555.37
2022-11-20T05:25:55.972Z,101546.78
2022-11-20T05:26:54.461Z,101536.56
2022-11-20T05:27:56.155Z,101532.05
2022-11-20T05:28:57.851Z,101527.56
2022-11-20T05:29:59.751Z,101537.84
2022-11-20T05:31:01.550Z,101547.30
2022-11-20T05:32:03.339Z,101562.75
2022-11-20T05:33:05.121Z,101572.95
2022-11-20T05:34:08.614Z,101585.81
2022-11-20T05:35:10.351Z,101585.81
2022-11-20T05:36:13.357Z,101603.97
2022-11-20T05:37:15.050Z,101603.25
2022-11-20T05:38:16.885Z,101600.67
2022-11-20T05:39:18.714Z,101601.58
2022-11-20T05:40:20.539Z,101603.38
2022-11-20T05:41:22.219Z,101599.19
2022-11-20T05:42:24.009Z,101590.72
2022-11-20T05:43:25.803Z,101584.80
2022-11-20T05:44:27.585Z,101589.17
2022-11-20T05:45:29.443Z,101585.67
2022-11-20T05:46:31.213Z,101579.57
2022-11-20T05:47:33.004Z,101576.98
2022-11-20T05:48:34.799Z,101576.98
2022-11-20T05:49:36.585Z,101572.56
2022-11-20T05:50:38.404Z,101563.00
2022-11-20T05:51:40.173Z,101561.16
2022-11-20T05:52:41.969Z,101559.45
2022-11-20T05:53:48.065Z,101553.47
2022-11-20T05:54:47.347Z,101549.95
2022-11-20T05:55:49.179Z,101558.58
2022-11-20T05:56:50.953Z,101558.58
2022-11-20T05:57:52.742Z,101562.03
2022-11-20T05:58:54.543Z,101567.98
2022-11-20T05:59:56.324Z,101563.62
2022-11-20T06:00:58.151Z,101562.69
2022-11-20T06:01:59.929Z,101560.97
2022-11-20T06:03:01.736Z,101562.69
2022-11-20T06:04:03.523Z,101571.31
2022-11-20T06:05:05.327Z,101566.20
2022-11-20T06:06:07.186Z,101568.91
2022-11-20T06:07:09.037Z,101559.52
2022-11-20T06:08:10.778Z,101564.74
2022-11-20T06:09:12.567Z,101558.83
2022-11-20T06:10:14.365Z,101560.67
2022-11-20T06:11:16.089Z,101562.47
2022-11-20T06:12:17.871Z,101550.33
2022-11-20T06:13:19.658Z,101556.44
2022-11-20T06:14:21.453Z,101547.03
2022-11-20T06:15:23.240Z,101553.04
2022-11-20T06:16:25.081Z,101555.63
2022-11-20T06:17:26.858Z,101562.34
2022-11-20T06:18:28.643Z,101571.69
2022-11-20T06:19:30.434Z,101577.61
2022-11-20T06:20:32.131Z,101575.92
2022-11-20T06:21:33.975Z,101575.02
2022-11-20T06:22:35.657Z,101587.94
2022-11-20T06:23:37.445Z,101589.59
2022-11-20T06:24:39.223Z,101592.17
2022-11-20T06:25:41.032Z,101593.05
2022-11-20T06:26:42.868Z,101599.19
2022-11-20T06:27:44.645Z,101605.35
2022-11-20T06:28:46.435Z,101617.47
2022-11-20T06:29:48.210Z,101616.76
2022-11-20T06:30:50.023Z,101609.84
2022-11-20T06:31:51.878Z,101602.09
2022-11-20T06:32:53.660Z,101592.69
2022-11-20T06:33:55.442Z,101591.07
2022-11-20T06:34:57.224Z,101578.05
2022-11-20T06:36:01.649Z,101572.87
2022-11-20T06:37:02.679Z,101574.59
2022-11-20T06:38:04.473Z,101573.66
2022-11-20T06:39:06.316Z,101567.52
2022-11-20T06:40:08.247Z,101570.05
2022-11-20T06:41:10.047Z,101569.11
2022-11-20T06:42:11.773Z,101567.33
2022-11-20T06:43:13.498Z,101559.45
2022-11-20T06:44:15.259Z,101561.03
2022-11-20T06:45:17.040Z,101572.89
2022-11-20T06:46:18.946Z,101577.90
2022-11-20T06:47:20.874Z,101574.44
2022-11-20T06:48:22.648Z,101575.31
2022-11-20T06:49:24.765Z,101566.75
2022-11-20T06:50:26.762Z,101562.39
2022-11-20T06:51:28.566Z,101564.11
2022-11-20T06:52:30.404Z,101563.23
2022-11-20T06:53:32.095Z,101565.08
2022-11-20T06:54:33.891Z,101558.13
2022-11-20T06:55:35.681Z,101558.06
2022-11-20T06:56:37.457Z,101558.00
2022-11-20T06:57:39.274Z,101547.67
2022-11-20T06:58:41.088Z,101546.63
2022-11-20T06:59:42.928Z,101558.62
2022-11-20T07:00:44.877Z,101565.49
2022-11-20T07:01:46.659Z,101569.02
2022-11-20T07:02:48.641Z,101568.20
2022-11-20T07:03:54.174Z,101566.56
2022-11-20T07:04:54.126Z,101564.91
2022-11-20T07:05:55.956Z,101574.44
2022-11-20T07:06:57.787Z,101582.13
2022-11-20T07:07:59.614Z,101572.60
2022-11-20T07:09:01.435Z,101572.53
2022-11-20T07:10:03.265Z,101566.56
2022-11-20T07:11:05.068Z,101551.86
2022-11-20T07:12:06.889Z,101545.77
2022-11-20T07:13:08.781Z,101567.30
2022-11-20T07:14:10.612Z,101566.44
2022-11-20T07:15:12.442Z,101570.73
2022-11-20T07:16:14.340Z,101567.23
2022-11-20T07:17:16.138Z,101556.91
2022-11-20T07:18:18.070Z,101550.06
2022-11-20T07:19:20.094Z,101552.64
2022-11-20T07:20:22.297Z,101549.16
2022-11-20T07:21:24.103Z,101554.32
2022-11-20T07:22:25.913Z,101552.58
2022-11-20T07:23:27.751Z,101555.16
2022-11-20T07:24:29.593Z,101558.68
2022-11-20T07:25:31.420Z,101558.68
2022-11-20T07:26:33.228Z,101554.45
2022-11-20T07:27:35.049Z,101561.33
2022-11-20T07:28:36.900Z,101560.52
2022-11-20T07:29:38.700Z,101556.91
2022-11-20T07:30:40.599Z,101552.58
2022-11-20T07:31:42.394Z,101545.63
2022-11-20T07:32:44.081Z,101546.38
2022-11-20T07:33:46.015Z,101541.98
2022-11-20T07:34:47.722Z,101525.39
2022-11-20T07:35:49.514Z,101525.39
2022-11-20T07:36:51.321Z,101523.77
2022-11-20T07:37:53.126Z,101517.57
2022-11-20T07:38:54.986Z,101512.41
2022-11-20T07:39:56.772Z,101514.99
2022-11-20T07:40:58.670Z,101522.73
2022-11-20T07:42:00.619Z,101503.59
2022-11-20T07:43:02.452Z,101516.44
2022-11-20T07:44:04.282Z,101518.05
2022-11-20T07:45:06.080Z,101515.47
2022-11-20T07:46:08.203Z,101515.54
2022-11-20T07:47:09.997Z,101506.17
2022-11-20T07:48:11.693Z,101499.30
2022-11-20T07:49:13.603Z,101507.05
2022-11-20T07:50:15.517Z,101507.86
2022-11-20T07:51:17.336Z,101513.09
2022-11-20T07:52:19.123Z,101524.25
2022-11-20T07:53:20.921Z,101532.00
2022-11-20T07:54:22.777Z,101527.71
2022-11-20T07:55:24.571Z,101525.19
2022-11-20T07:56:26.571Z,101516.70
2022-11-20T07:57:28.700Z,101509.95
2022-11-20T07:58:30.577Z,101511.05
2022-11-20T07:59:32.421Z,101512.73
2022-11-20T08:00:34.168Z,101518.73
2022-11-20T08:01:36.026Z,101512.73
2022-11-20T08:02:37.808Z,101508.53
2022-11-20T08:03:39.611Z,101511.11
2022-11-20T08:04:41.471Z,101521.52
2022-11-20T08:05:43.269Z,101524.09
2022-11-20T08:06:45.265Z,101526.68
2022-11-20T08:07:47.015Z,101532.72
2022-11-20T08:08:48.779Z,101531.91
2022-11-20T08:09:50.622Z,101524.16
2022-11-20T08:10:52.443Z,101512.98
2022-11-20T08:11:54.263Z,101506.14
2022-11-20T08:12:56.054Z,101513.05
2022-11-20T08:13:57.752Z,101512.11
2022-11-20T08:14:59.575Z,101508.59
2022-11-20T08:16:01.360Z,101510.34
2022-11-20T08:17:03.158Z,101502.71
2022-11-20T08:18:29.278Z,101496.67
2022-11-20T08:19:08.572Z,101485.47
2022-11-20T08:20:10.594Z,101471.64
2022-11-20T08:21:12.397Z,101461.25
2022-11-20T08:22:14.181Z,101458.60
2022-11-20T08:23:15.985Z,101451.69
2022-11-20T08:24:17.707Z,101439.59
2022-11-20T08:25:19.536Z,101438.66
2022-11-20T08:26:21.325Z,101425.73
2022-11-20T08:27:23.022Z,101423.09
2022-11-20T08:28:24.811Z,101411.11
2022-11-20T08:29:26.524Z,101405.94
2022-11-20T08:30:28.384Z,101405.81
2022-11-20T08:31:30.169Z,101418.67
2022-11-20T08:32:31.975Z,101417.58
2022-11-20T08:33:33.774Z,101413.20
2022-11-20T08:34:35.575Z,101410.36
2022-11-20T08:35:37.448Z,101405.94
2022-11-20T08:36:39.458Z,101395.55
2022-11-20T08:37:41.267Z,101385.97
2022-11-20T08:38:43.060Z,101391.91
2022-11-20T08:39:44.868Z,101397.02
2022-11-20T08:40:46.686Z,101401.27
2022-11-20T08:41:48.471Z,101397.76
2022-11-20T08:42:50.269Z,101393.34
2022-11-20T08:43:52.066Z,101389.95
2022-11-20T08:44:53.868Z,101386.59
2022-11-20T08:45:55.706Z,101385.03
2022-11-20T08:46:57.490Z,101385.16
2022-11-20T08:47:59.197Z,101378.28
2022-11-20T08:49:01.014Z,101369.55
2022-11-20T08:50:02.826Z,101360.02
2022-11-20T08:51:04.684Z,101355.70
2022-11-20T08:52:06.495Z,101354.86
2022-11-20T08:53:08.286Z,101354.80
2022-11-20T08:54:10.001Z,101343.53
2022-11-20T08:55:11.823Z,101350.38
2022-11-20T08:56:13.656Z,101337.63
2022-11-20T08:57:15.441Z,101337.69
2022-11-20T08:58:17.245Z,101331.63
2022-11-20T08:59:44.134Z,101335.11
2022-11-20T09:00:22.705Z,101342.85
2022-11-20T09:01:25.038Z,101346.24
2022-11-20T09:02:26.901Z,101350.54
2022-11-20T09:03:32.861Z,101356.45
2022-11-20T09:04:32.314Z,101371.81
2022-11-20T09:05:33.999Z,101382.08
2022-11-20T09:06:35.864Z,101382.89
2022-11-20T09:07:37.618Z,101387.05
2022-11-20T09:08:39.486Z,101392.22
2022-11-20T09:09:41.184Z,101393.09
2022-11-20T09:10:42.986Z,101377.72
2022-11-20T09:11:44.821Z,101366.71
2022-11-20T09:12:46.627Z,101352.22
2022-11-20T09:13:48.422Z,101348.14
2022-11-20T09:14:54.880Z,101345.63
2022-11-20T09:15:53.884Z,101343.97
2022-11-20T09:16:55.745Z,101349.13
2022-11-20T09:17:57.547Z,101334.51
2022-11-20T09:19:20.586Z,101327.66
2022-11-20T09:20:02.854Z,101316.49
2022-11-20T09:21:04.636Z,101311.27
2022-11-20T09:22:06.674Z,101304.30
2022-11-20T09:23:08.468Z,101302.47
2022-11-20T09:24:10.157Z,101301.59
2022-11-20T09:25:11.877Z,101294.66
2022-11-20T09:26:14.786Z,101291.96
2022-11-20T09:27:16.621Z,101283.19
2022-11-20T09:28:18.425Z,101279.68
2022-11-20T09:29:20.596Z,101268.42
2022-11-20T09:30:22.618Z,101265.78
2022-11-20T09:31:24.609Z,101264.88
2022-11-20T09:32:26.352Z,101268.30
2022-11-20T09:33:28.151Z,101273.47
2022-11-20T09:34:29.845Z,101276.11
2022-11-20T09:35:31.638Z,101274.39
2022-11-20T09:36:33.352Z,101279.56
2022-11-20T09:37:35.257Z,101272.62
2022-11-20T09:38:37.056Z,101270.77
2022-11-20T09:39:38.763Z,101265.59
2022-11-20T09:40:40.769Z,101263.02
2022-11-20T09:41:42.728Z,101268.98
2022-11-20T09:42:44.585Z,101268.06
2022-11-20T09:43:46.406Z,101273.22
2022-11-20T09:44:48.200Z,101275.74
2022-11-20T09:45:50.004Z,101266.16
2022-11-20T09:46:51.804Z,101261.88
2022-11-20T09:47:53.675Z,101260.19
2022-11-20T09:48:55.474Z,101258.42
2022-11-20T09:49:57.293Z,101248.03
2022-11-20T09:50:59.114Z,101254.01
2022-11-20T09:52:00.898Z,101252.30
2022-11-20T09:53:02.841Z,101253.20
2022-11-20T09:54:04.644Z,101251.36
2022-11-20T09:55:06.451Z,101259.92
2022-11-20T09:56:08.375Z,101251.36
2022-11-20T09:57:10.199Z,101233.20
2022-11-20T09:58:12.036Z,101231.53
2022-11-20T09:59:13.856Z,101236.59
2022-11-20T10:00:15.667Z,101224.53
2022-11-20T10:01:17.613Z,101214.20
2022-11-20T10:02:19.533Z,101220.18
2022-11-20T10:03:21.413Z,101226.15
2022-11-20T10:04:23.222Z,101225.22
2022-11-20T10:05:25.045Z,101215.77
2022-11-20T10:06:26.890Z,101226.87
2022-11-20T10:07:32.930Z,101232.03
2022-11-20T10:08:32.477Z,101226.81
2022-11-20T10:09:34.270Z,101238.06
2022-11-20T10:10:41.031Z,101228.61
2022-11-20T10:11:39.830Z,101219.25
2022-11-20T10:12:41.620Z,101223.51
2022-11-20T10:13:43.501Z,101217.48
2022-11-20T10:14:45.310Z,101208.92
2022-11-20T10:15:47.151Z,101202.92
2022-11-20T10:16:48.980Z,101203.89
2022-11-20T10:17:50.821Z,101209.27
2022-11-20T10:18:52.584Z,101199.81
2022-11-20T10:19:54.398Z,101193.84
2022-11-20T10:20:56.205Z,101193.84
2022-11-20T10:21:58.023Z,101204.34
2022-11-20T10:22:59.809Z,101213.91
2022-11-20T10:24:01.729Z,101212.14
2022-11-20T10:25:03.557Z,101220.70
2022-11-20T10:26:05.386Z,101225.05
2022-11-20T10:27:07.199Z,101232.85
2022-11-20T10:28:09.009Z,101216.67
2022-11-20T10:29:10.838Z,101217.66
2022-11-20T10:30:12.647Z,101218.47
2022-11-20T10:31:14.462Z,101220.13
2022-11-20T10:32:16.265Z,101207.22
2022-11-20T10:33:18.091Z,101203.88
2022-11-20T10:34:22.968Z,101188.56
2022-11-20T10:35:23.593Z,101193.73
2022-11-20T10:36:25.532Z,101193.79
2022-11-20T10:37:27.372Z,101200.63
2022-11-20T10:38:29.692Z,101203.27
2022-11-20T10:39:31.781Z,101204.17
2022-11-20T10:40:33.635Z,101214.50
2022-11-20T10:41:37.060Z,101214.44
2022-11-20T10:42:39.088Z,101209.22
2022-11-20T10:43:40.865Z,101207.51
2022-11-20T10:44:42.698Z,101204.00
2022-11-20T10:45:44.529Z,101191.91
2022-11-20T10:46:46.461Z,101188.34
2022-11-20T10:47:48.272Z,101183.17
2022-11-20T10:48:50.067Z,101169.30
2022-11-20T10:49:51.931Z,101159.83
2022-11-20T10:50:53.778Z,101164.92
2022-11-20T10:51:55.623Z,101156.11
2022-11-20T10:52:57.424Z,101160.34
2022-11-20T10:53:59.235Z,101162.92
2022-11-20T10:55:01.332Z,101163.79
2022-11-20T10:56:03.263Z,101168.95
2022-11-20T10:57:05.081Z,101162.11
2022-11-20T10:58:06.915Z,101162.92
2022-11-20T10:59:08.725Z,101160.23
2022-11-20T11:00:10.988Z,101162.66
2022-11-20T11:01:12.832Z,101163.47
2022-11-20T11:02:14.612Z,101163.47
2022-11-20T11:03:16.435Z,101156.53
2022-11-20T11:04:18.250Z,101164.34
2022-11-20T11:05:20.117Z,101168.56
2022-11-20T11:06:21.966Z,101171.20
2022-11-20T11:07:23.806Z,101172.92
2022-11-20T11:08:25.865Z,101173.73
2022-11-20T11:09:27.875Z,101171.95
2022-11-20T11:10:29.914Z,101168.56
2022-11-20T11:11:31.695Z,101167.64
2022-11-20T11:12:33.518Z,101168.56
2022-11-20T11:13:35.349Z,101163.47
2022-11-20T11:14:37.150Z,101164.42
2022-11-20T11:15:38.991Z,101159.27
2022-11-20T11:16:40.825Z,101158.52
2022-11-20T11:17:42.653Z,101165.39
2022-11-20T11:18:44.476Z,101161.09
2022-11-20T11:19:46.280Z,101166.31
2022-11-20T11:20:48.194Z,101174.87
2022-11-20T11:21:55.112Z,101172.23
2022-11-20T11:22:53.648Z,101168.69
2022-11-20T11:23:57.509Z,101168.63
2022-11-20T11:24:59.068Z,101173.73
2022-11-20T11:26:01.029Z,101172.08
2022-11-20T11:27:02.857Z,101159.95
2022-11-20T11:28:04.686Z,101159.95
2022-11-20T11:29:06.577Z,101157.38
2022-11-20T11:30:08.522Z,101149.63
2022-11-20T11:31:10.386Z,101141.05
2022-11-20T11:32:12.202Z,101140.23
2022-11-20T11:33:14.057Z,101144.53
2022-11-20T11:34:15.871Z,101131.69
2022-11-20T11:35:17.664Z,101134.27
2022-11-20T11:36:19.846Z,101132.55
2022-11-20T11:37:21.721Z,101126.52
2022-11-20T11:38:23.669Z,101133.45
2022-11-20T11:39:25.724Z,101126.67
2022-11-20T11:40:27.626Z,101123.25
2022-11-20T11:41:29.821Z,101118.03
2022-11-20T11:42:31.676Z,101112.72
2022-11-20T11:43:36.788Z,101112.72
2022-11-20T11:44:37.156Z,101115.39
2022-11-20T11:45:38.975Z,101105.19